METAR AND TAF INFORMATION
METAR FOR FBSK
ADDS - METARS form results

(0600 UTC 23 May 2019)
Data provider http://aviationweather.gov/metar/data/
 
Forecast for: FBSK (SIR SERETSE KHAM, BW)
Text: TAF FBSK 230300Z 2306/2412 04009KT CAVOK
Forecast period: 0600 UTC 23 May 2019 to 1200 UTC 24 May 2019
Forecast type: FROM: standard forecast or significant change
Winds: from the NE (40 degrees) at 10 MPH (9 knots; 4.6 m/s)
Visibility: 6 or more miles 10+ km)
Ceiling: unknown
Clouds: missing
Weather: NSW  (no significant weather)

 AIRPORT MAP

 RUNWAY INFORMATION
Runway 08 Runway length 9843 ft Runway width 148 ft
Runway elevation 3292 ft Runway displaced threshold 0 ft Runway heading 62
Runway 26 Runway length 9843 ft Runway width 148 ft
Runway elevation 3291 ft Runway displaced threshold 0 ft Runway heading 242

 AIRPORT FREQUENCIES
Type APP Name GABORONE A Frequency 128.2 MHZ
Type GND Name KHAMA GND Frequency 121.9 MHZ
Type TWR Name KHAMA TWR Frequency 118.3 MHZ

 AIRPORT NEAR NAVIGATION AIDS
Type NDB Name Gaborone Frequency 311 KHZ
Type VOR-DME Name Gaborone Frequency 113700 KHZ



Powered by Virtual Airlines Manager [v2.6.2]